Etusivu
METAR-TAF:

METAR-TAF

Lentoasemat :

Dakar, Senegal

Leveyspiiri: 14-40-16N, Pituuspiiri: 17-04-01W, korkeus merenpinnasta: 88 m

Tämänhetkinen sää

Tämä raportti tehtiin 33 minuuttia sitten, kello 00.00 UTC
Tuuli 14 kn pohjoisesta
Lämpötila 27°C
Kosteus 34%
Ilmanpaine 1011 hPa
Näkyvyys: 8000 m

METAR: GOBD 170000Z 36014KT 8000 NSC 27/10 Q1011 NOSIG

Aika: 00:33 (00:33 UTC)

Sääennuste

Tämä raportti tehtiin 1 tunti ja 33 minuuttia sitten, kello 23.00 UTC
Ennuste voimassa 17. päivästä klo 00 UTC - 18. päivään klo 06 UTC
Tuuli 15 kn pohjoisesta
Näkyvyys: 8000 m

TAF: GOBD 162300Z 1700/1806 36015KT 8000 NSC

Säähavainnot ja -ennusteet yli 4000 lentoasemalta (METAR- ja TAF-raportit).

Käytössä olevat sääasemat on merkitty karttaan keltaisilla ja punaisilla pisteillä.

Aseta hiiri pisteen päälle nähdäksesi sääaseman nimen.

Klikkaa sitten nähdäksesi säähavainnot ja -ennusteet.

Kartan vaihtaminen: klikkaa mustalla rastilla varustettuja vihreitä pisteitä, niin voit zoomata sisään; viivalla varustettua vihreää pistettä, niin voit zoomata ulos tai vihreitä nuolia, niin pääset viereisille kartoille.


METAR-TAF: